createdAt,value
2023-01-05T00:00:02.156Z,9.51
2023-01-05T00:02:40.203Z,9.48
2023-01-05T00:05:08.172Z,9.52
2023-01-05T00:07:35.756Z,9.61
2023-01-05T00:10:03.597Z,9.78
2023-01-05T00:12:49.462Z,9.77
2023-01-05T00:15:35.262Z,9.43
2023-01-05T00:18:21.415Z,9.56
2023-01-05T00:21:07.921Z,9.60
2023-01-05T00:23:35.619Z,9.49
2023-01-05T00:26:03.203Z,9.34
2023-01-05T00:28:30.781Z,9.34
2023-01-05T00:30:58.316Z,9.37
2023-01-05T00:33:25.854Z,9.00
2023-01-05T00:35:53.457Z,9.05
2023-01-05T00:38:21.161Z,8.74
2023-01-05T00:40:49.932Z,8.74
2023-01-05T00:43:17.495Z,8.84
2023-01-05T00:45:45.204Z,8.87
2023-01-05T00:48:12.890Z,8.98
2023-01-05T00:50:40.447Z,8.99
2023-01-05T00:53:08.057Z,9.08
2023-01-05T00:55:35.668Z,9.12
2023-01-05T00:58:03.222Z,9.06
2023-01-05T01:00:30.850Z,9.06
2023-01-05T01:02:58.429Z,9.03
2023-01-05T01:05:26.005Z,9.01
2023-01-05T01:07:53.704Z,8.97
2023-01-05T01:10:21.313Z,8.97
2023-01-05T01:12:48.820Z,8.98
2023-01-05T01:15:16.469Z,8.95
2023-01-05T01:17:44.128Z,8.83
2023-01-05T01:20:11.751Z,8.87
2023-01-05T01:22:39.351Z,8.89
2023-01-05T01:25:08.788Z,8.87
2023-01-05T01:27:36.450Z,8.90
2023-01-05T01:30:04.359Z,8.89
2023-01-05T01:32:32.113Z,9.04
2023-01-05T01:34:59.660Z,9.07
2023-01-05T01:37:27.536Z,9.24
2023-01-05T01:39:57.010Z,9.13
2023-01-05T01:42:25.083Z,9.21
2023-01-05T01:44:55.461Z,9.36
2023-01-05T01:47:38.635Z,9.33
2023-01-05T01:50:22.382Z,9.42
2023-01-05T01:52:52.631Z,9.42
2023-01-05T01:55:21.006Z,9.32
2023-01-05T01:57:50.733Z,9.28
2023-01-05T02:00:18.997Z,9.53
2023-01-05T02:02:49.223Z,9.29
2023-01-05T02:05:26.486Z,9.35
2023-01-05T02:07:54.442Z,9.35
2023-01-05T02:10:51.071Z,9.29
2023-01-05T02:13:32.842Z,9.38
2023-01-05T02:16:24.200Z,9.03
2023-01-05T02:19:28.524Z,9.03
2023-01-05T02:22:20.695Z,9.26
2023-01-05T02:25:00.221Z,9.29
2023-01-05T02:27:51.559Z,9.24
2023-01-05T02:30:59.748Z,9.38
2023-01-05T02:33:56.932Z,9.42
2023-01-05T02:36:54.832Z,9.35
2023-01-05T02:39:26.627Z,9.06
2023-01-05T02:42:17.890Z,8.93
2023-01-05T02:44:45.653Z,9.03
2023-01-05T02:47:25.230Z,9.18
2023-01-05T02:50:01.406Z,9.21
2023-01-05T02:52:40.845Z,9.21
2023-01-05T02:55:13.869Z,9.08
2023-01-05T02:58:07.847Z,9.11
2023-01-05T03:00:43.129Z,9.48
2023-01-05T03:03:21.170Z,9.58
2023-01-05T03:06:27.103Z,9.50
2023-01-05T03:09:00.989Z,9.45
2023-01-05T03:12:16.058Z,9.27
2023-01-05T03:14:52.974Z,9.17
2023-01-05T03:17:40.459Z,9.32
2023-01-05T03:20:09.776Z,9.44
2023-01-05T03:22:58.183Z,9.58
2023-01-05T03:25:46.561Z,9.48
2023-01-05T03:28:39.748Z,9.31
2023-01-05T03:31:40.409Z,9.29
2023-01-05T03:34:35.463Z,9.20
2023-01-05T03:37:08.152Z,9.29
2023-01-05T03:39:40.639Z,9.11
2023-01-05T03:42:10.857Z,9.24
2023-01-05T03:44:40.697Z,9.31
2023-01-05T03:47:13.295Z,9.34
2023-01-05T03:49:41.094Z,9.27
2023-01-05T03:52:09.823Z,9.33
2023-01-05T03:54:40.848Z,9.11
2023-01-05T03:57:08.840Z,9.33
2023-01-05T03:59:36.438Z,9.23
2023-01-05T04:02:04.944Z,9.24
2023-01-05T04:04:33.417Z,9.23
2023-01-05T04:07:03.332Z,9.08
2023-01-05T04:09:34.065Z,9.21
2023-01-05T04:12:02.417Z,9.29
2023-01-05T04:14:34.416Z,9.23
2023-01-05T04:17:01.992Z,9.17
2023-01-05T04:19:29.575Z,9.23
2023-01-05T04:21:57.622Z,9.12
2023-01-05T04:24:26.177Z,9.28
2023-01-05T04:26:53.755Z,9.39
2023-01-05T04:29:25.308Z,9.45
2023-01-05T04:31:55.668Z,9.33
2023-01-05T04:34:23.303Z,9.37
2023-01-05T04:36:54.611Z,9.31
2023-01-05T04:39:23.270Z,9.44
2023-01-05T04:41:51.538Z,9.43
2023-01-05T04:44:20.977Z,9.37
2023-01-05T04:46:50.013Z,9.27
2023-01-05T04:49:18.632Z,9.33
2023-01-05T04:51:49.441Z,9.28
2023-01-05T04:54:17.343Z,9.36
2023-01-05T04:57:04.380Z,9.27
2023-01-05T04:59:32.083Z,9.31
2023-01-05T05:02:05.141Z,9.35
2023-01-05T05:04:34.341Z,9.25
2023-01-05T05:07:04.143Z,9.34
2023-01-05T05:09:33.373Z,9.40
2023-01-05T05:12:01.311Z,9.38
2023-01-05T05:14:29.103Z,9.49
2023-01-05T05:16:59.857Z,9.51
2023-01-05T05:19:29.880Z,9.55
2023-01-05T05:21:59.262Z,9.57
2023-01-05T05:24:27.765Z,9.26
2023-01-05T05:26:57.275Z,9.26
2023-01-05T05:29:25.212Z,9.26
2023-01-05T05:31:52.831Z,9.37
2023-01-05T05:34:20.468Z,9.29
2023-01-05T05:36:48.171Z,9.40
2023-01-05T05:39:16.474Z,9.53
2023-01-05T05:41:44.002Z,9.57
2023-01-05T05:44:11.586Z,9.56
2023-01-05T05:46:39.257Z,9.53
2023-01-05T05:49:08.767Z,9.32
2023-01-05T05:51:36.386Z,9.29
2023-01-05T05:54:04.107Z,9.27
2023-01-05T05:56:31.656Z,9.24
2023-01-05T05:59:01.575Z,9.43
2023-01-05T06:01:29.650Z,9.25
2023-01-05T06:03:57.457Z,9.46
2023-01-05T06:06:25.151Z,9.09
2023-01-05T06:08:52.699Z,9.16
2023-01-05T06:11:20.283Z,9.31
2023-01-05T06:13:48.947Z,9.27
2023-01-05T06:16:16.737Z,8.96
2023-01-05T06:18:44.407Z,9.06
2023-01-05T06:21:12.031Z,9.03
2023-01-05T06:23:39.524Z,9.11
2023-01-05T06:26:07.233Z,9.20
2023-01-05T06:28:34.818Z,9.00
2023-01-05T06:31:02.414Z,9.04
2023-01-05T06:33:30.022Z,9.00
2023-01-05T06:35:58.961Z,9.02
2023-01-05T06:38:27.920Z,8.96
2023-01-05T06:40:55.628Z,9.07
2023-01-05T06:43:23.189Z,8.79
2023-01-05T06:45:50.929Z,8.91
2023-01-05T06:48:19.015Z,8.98
2023-01-05T06:50:46.574Z,9.11
2023-01-05T06:53:15.684Z,9.13
2023-01-05T06:55:44.720Z,9.06
2023-01-05T06:58:12.291Z,8.90
2023-01-05T07:00:40.046Z,9.03
2023-01-05T07:03:07.884Z,9.12
2023-01-05T07:05:35.611Z,9.16
2023-01-05T07:08:03.118Z,9.21
2023-01-05T07:10:30.758Z,9.31
2023-01-05T07:12:58.336Z,9.21
2023-01-05T07:15:26.055Z,9.45
2023-01-05T07:17:53.735Z,9.25
2023-01-05T07:20:21.269Z,9.30
2023-01-05T07:22:48.856Z,9.27
2023-01-05T07:25:16.392Z,9.34
2023-01-05T07:27:44.028Z,9.29
2023-01-05T07:30:12.257Z,9.27
2023-01-05T07:32:39.889Z,9.35
2023-01-05T07:35:07.812Z,9.23
2023-01-05T07:37:35.377Z,9.35
2023-01-05T07:40:03.161Z,9.30
2023-01-05T07:42:30.840Z,9.20
2023-01-05T07:44:58.374Z,9.43
2023-01-05T07:47:25.831Z,9.34
2023-01-05T07:49:53.372Z,9.62
2023-01-05T07:52:20.916Z,9.34
2023-01-05T07:54:48.674Z,9.51
2023-01-05T07:57:16.285Z,9.49
2023-01-05T07:59:43.737Z,9.60
2023-01-05T08:02:11.489Z,9.66
2023-01-05T08:04:39.282Z,9.83
2023-01-05T08:07:11.566Z,9.70
2023-01-05T08:09:57.521Z,9.70
2023-01-05T08:12:25.093Z,9.95
2023-01-05T08:14:52.652Z,9.89
2023-01-05T08:17:20.212Z,9.51
2023-01-05T08:19:47.924Z,9.75
2023-01-05T08:22:15.435Z,9.45
2023-01-05T08:24:43.027Z,9.67
2023-01-05T08:27:10.701Z,9.49
2023-01-05T08:29:38.244Z,9.72
2023-01-05T08:32:06.019Z,9.76
2023-01-05T08:34:35.089Z,9.72
2023-01-05T08:37:02.861Z,9.59
2023-01-05T08:39:30.341Z,9.55
2023-01-05T08:42:02.524Z,9.52
2023-01-05T08:44:30.755Z,9.73
2023-01-05T08:46:58.336Z,9.96
2023-01-05T08:49:25.870Z,9.72
2023-01-05T08:51:53.357Z,9.68
2023-01-05T08:54:20.952Z,9.84
2023-01-05T08:56:50.740Z,9.91
2023-01-05T08:59:18.880Z,9.80
2023-01-05T09:01:46.618Z,9.94
2023-01-05T09:04:14.273Z,9.91
2023-01-05T09:06:41.764Z,9.88
2023-01-05T09:09:09.278Z,9.67
2023-01-05T09:11:36.893Z,9.99
2023-01-05T09:14:04.363Z,9.82
2023-01-05T09:17:06.482Z,10.06
2023-01-05T09:19:23.057Z,10.14
2023-01-05T09:21:52.223Z,9.94
2023-01-05T09:24:19.959Z,9.97
2023-01-05T09:26:47.788Z,10.41
2023-01-05T09:29:15.423Z,10.10
2023-01-05T09:31:43.731Z,10.34
2023-01-05T09:34:11.546Z,10.58
2023-01-05T09:36:39.145Z,10.64
2023-01-05T09:39:06.747Z,10.98
2023-01-05T09:41:41.887Z,10.86
2023-01-05T09:44:21.989Z,10.79
2023-01-05T09:46:51.862Z,10.91
2023-01-05T09:49:23.346Z,10.68
2023-01-05T09:51:56.138Z,10.78
2023-01-05T09:54:27.960Z,10.76
2023-01-05T09:57:09.201Z,10.87
2023-01-05T09:59:41.414Z,10.57
2023-01-05T10:02:37.970Z,10.94
2023-01-05T10:05:06.863Z,10.90
2023-01-05T10:07:45.808Z,11.23
2023-01-05T10:10:43.529Z,11.46
2023-01-05T10:13:25.090Z,11.48
2023-01-05T10:15:54.905Z,11.38
2023-01-05T10:18:25.600Z,11.36
2023-01-05T10:21:10.931Z,10.79
2023-01-05T10:23:46.626Z,11.08
2023-01-05T10:26:51.088Z,11.03
2023-01-05T10:29:27.423Z,11.08
2023-01-05T10:32:03.873Z,11.29
2023-01-05T10:34:49.281Z,11.60
2023-01-05T10:37:34.485Z,11.97
2023-01-05T10:40:29.651Z,11.83
2023-01-05T10:43:18.795Z,11.94
2023-01-05T10:46:19.829Z,12.26
2023-01-05T10:48:35.706Z,12.57
2023-01-05T10:51:04.769Z,12.65
2023-01-05T10:53:39.268Z,12.48
2023-01-05T10:56:10.749Z,12.60
2023-01-05T10:58:41.680Z,12.48
2023-01-05T11:01:19.568Z,12.21
2023-01-05T11:06:37.789Z,12.04
2023-01-05T11:09:22.621Z,12.43
2023-01-05T11:12:03.383Z,12.70
2023-01-05T11:14:36.024Z,12.88
2023-01-05T11:17:06.406Z,12.86
2023-01-05T11:19:41.440Z,12.20
2023-01-05T11:22:35.926Z,12.64
2023-01-05T11:25:32.378Z,12.52
2023-01-05T11:28:11.890Z,12.27
2023-01-05T11:30:57.687Z,12.44
2023-01-05T11:33:29.451Z,12.11
2023-01-05T11:35:58.750Z,12.02
2023-01-05T11:38:31.221Z,11.92
2023-01-05T11:41:00.828Z,12.04
2023-01-05T11:43:31.776Z,11.77
2023-01-05T11:46:08.020Z,12.17
2023-01-05T11:48:36.327Z,12.22
2023-01-05T11:51:04.025Z,11.98
2023-01-05T11:53:34.333Z,12.02
2023-01-05T11:56:06.454Z,12.55
2023-01-05T11:58:44.370Z,12.04
2023-01-05T12:01:25.602Z,12.00
2023-01-05T12:04:17.656Z,12.43
2023-01-05T12:07:06.651Z,12.03
2023-01-05T12:09:36.012Z,12.01
2023-01-05T12:12:06.321Z,12.45
2023-01-05T12:14:55.932Z,12.10
2023-01-05T12:17:37.259Z,12.02
2023-01-05T12:20:32.342Z,11.93
2023-01-05T12:23:19.366Z,11.98
2023-01-05T12:26:13.504Z,11.67
2023-01-05T12:28:57.938Z,11.90
2023-01-05T12:35:12.527Z,12.28
2023-01-05T12:37:49.106Z,12.32
2023-01-05T12:40:37.272Z,12.21
2023-01-05T12:43:09.593Z,12.42
2023-01-05T12:45:37.069Z,12.35
2023-01-05T12:48:18.736Z,12.45
2023-01-05T12:51:12.243Z,12.36
2023-01-05T12:53:44.680Z,12.51
2023-01-05T12:56:29.670Z,12.72
2023-01-05T12:59:29.240Z,12.86
2023-01-05T13:02:39.393Z,12.17
2023-01-05T13:05:22.358Z,12.25
2023-01-05T13:07:59.045Z,12.11
2023-01-05T13:10:33.057Z,12.25
2023-01-05T13:13:06.056Z,11.66
2023-01-05T13:15:42.137Z,11.76
2023-01-05T13:18:17.990Z,11.68
2023-01-05T13:20:55.867Z,11.74
2023-01-05T13:23:29.832Z,12.22
2023-01-05T13:26:06.402Z,12.26
2023-01-05T13:28:35.055Z,12.16
2023-01-05T13:31:21.025Z,12.16
2023-01-05T13:34:00.317Z,12.15
2023-01-05T13:36:57.903Z,12.15
2023-01-05T13:40:09.755Z,12.28
2023-01-05T13:43:19.376Z,12.42
2023-01-05T13:45:56.049Z,12.16
2023-01-05T13:49:04.128Z,11.91
2023-01-05T13:51:53.250Z,11.55
2023-01-05T13:54:59.771Z,11.61
2023-01-05T13:57:38.506Z,11.16
2023-01-05T14:00:29.229Z,11.24
2023-01-05T14:03:08.317Z,11.49
2023-01-05T14:05:52.820Z,11.47
2023-01-05T14:08:28.144Z,11.60
2023-01-05T14:11:09.377Z,11.34
2023-01-05T14:14:24.525Z,11.08
2023-01-05T14:16:53.188Z,11.13
2023-01-05T14:22:18.826Z,11.12
2023-01-05T14:24:49.441Z,11.15
2023-01-05T14:27:21.593Z,11.10
2023-01-05T14:32:34.532Z,11.12
2023-01-05T14:35:37.226Z,11.07
2023-01-05T14:38:16.423Z,11.13
2023-01-05T14:40:56.299Z,11.36
2023-01-05T14:43:35.147Z,11.34
2023-01-05T14:46:11.927Z,11.21
2023-01-05T14:48:43.115Z,11.24
2023-01-05T14:51:24.071Z,11.07
2023-01-05T14:53:53.532Z,11.11
2023-01-05T14:56:26.768Z,10.96
2023-01-05T14:59:00.032Z,10.84
2023-01-05T15:01:35.867Z,10.94
2023-01-05T15:04:03.417Z,10.66
2023-01-05T15:06:45.912Z,10.83
2023-01-05T15:09:48.537Z,10.68
2023-01-05T15:12:40.002Z,10.73
2023-01-05T15:15:27.734Z,10.83
2023-01-05T15:18:13.864Z,10.74
2023-01-05T15:21:14.468Z,10.82
2023-01-05T15:23:59.965Z,10.59
2023-01-05T15:26:48.872Z,10.54
2023-01-05T15:29:24.052Z,10.46
2023-01-05T15:31:59.157Z,10.38
2023-01-05T15:34:38.325Z,10.31
2023-01-05T15:37:25.784Z,10.39
2023-01-05T15:39:55.375Z,10.43
2023-01-05T15:42:29.154Z,10.27
2023-01-05T15:44:57.506Z,10.15
2023-01-05T15:47:27.994Z,10.05
2023-01-05T15:50:00.636Z,10.02
2023-01-05T15:52:36.268Z,10.02
2023-01-05T15:55:11.571Z,9.90
2023-01-05T15:57:38.999Z,9.79
2023-01-05T16:00:22.273Z,9.80
2023-01-05T16:02:50.560Z,9.68
2023-01-05T16:05:30.345Z,9.59
2023-01-05T16:08:01.745Z,9.53
2023-01-05T16:10:37.395Z,9.48
2023-01-05T16:13:25.034Z,9.47
2023-01-05T16:15:56.224Z,9.46
2023-01-05T16:18:31.592Z,9.42
2023-01-05T16:21:05.102Z,9.46
2023-01-05T16:24:03.546Z,9.41
2023-01-05T16:26:35.046Z,9.28
2023-01-05T16:29:31.494Z,9.32
2023-01-05T16:31:59.523Z,9.28
2023-01-05T16:34:31.520Z,9.27
2023-01-05T16:37:01.064Z,9.21
2023-01-05T16:39:35.105Z,9.20
2023-01-05T16:42:39.571Z,9.14
2023-01-05T16:45:18.734Z,9.11
2023-01-05T16:47:46.631Z,9.00
2023-01-05T16:50:19.821Z,8.93
2023-01-05T16:52:55.620Z,8.89
2023-01-05T16:55:35.709Z,8.86
2023-01-05T16:58:25.073Z,8.81
2023-01-05T17:00:52.501Z,8.88
2023-01-05T17:03:30.327Z,8.97
2023-01-05T17:06:00.021Z,8.97
2023-01-05T17:08:31.761Z,8.88
2023-01-05T17:11:00.717Z,8.88
2023-01-05T17:13:42.433Z,8.77
2023-01-05T17:16:14.502Z,8.80
2023-01-05T17:18:41.984Z,8.91
2023-01-05T17:21:15.658Z,8.81
2023-01-05T17:23:47.329Z,8.81
2023-01-05T17:26:25.116Z,8.69
2023-01-05T17:28:57.146Z,8.84
2023-01-05T17:31:24.934Z,8.53
2023-01-05T17:33:52.338Z,8.59
2023-01-05T17:36:25.021Z,8.63
2023-01-05T17:38:52.685Z,8.47
2023-01-05T17:41:20.171Z,8.40
2023-01-05T17:43:48.234Z,8.40
2023-01-05T17:46:21.560Z,8.35
2023-01-05T17:48:49.388Z,8.25
2023-01-05T17:51:16.775Z,8.37
2023-01-05T17:53:44.199Z,8.57
2023-01-05T17:56:11.622Z,8.44
2023-01-05T17:58:39.292Z,8.49
2023-01-05T18:01:07.146Z,8.35
2023-01-05T18:03:34.758Z,8.40
2023-01-05T18:06:02.791Z,8.47
2023-01-05T18:08:30.365Z,8.42
2023-01-05T18:11:05.473Z,8.41
2023-01-05T18:13:34.147Z,8.48
2023-01-05T18:16:07.845Z,8.36
2023-01-05T18:18:35.425Z,8.43
2023-01-05T18:21:04.295Z,8.40
2023-01-05T18:23:32.123Z,8.45
2023-01-05T18:26:07.442Z,8.58
2023-01-05T18:28:36.003Z,8.63
2023-01-05T18:31:14.148Z,8.60
2023-01-05T18:33:42.540Z,8.64
2023-01-05T18:36:15.723Z,8.73
2023-01-05T18:38:43.420Z,8.74
2023-01-05T18:41:11.715Z,8.70
2023-01-05T18:43:39.629Z,8.87
2023-01-05T18:46:07.290Z,8.82
2023-01-05T18:48:34.911Z,8.83
2023-01-05T18:51:05.889Z,8.90
2023-01-05T18:53:33.622Z,9.01
2023-01-05T18:56:05.744Z,8.88
2023-01-05T18:58:33.515Z,8.97
2023-01-05T19:01:06.924Z,9.03
2023-01-05T19:03:34.766Z,8.98
2023-01-05T19:06:16.049Z,9.14
2023-01-05T19:08:44.757Z,9.08
2023-01-05T19:11:21.335Z,9.06
2023-01-05T19:13:50.338Z,9.15
2023-01-05T19:16:19.902Z,9.06
2023-01-05T19:18:53.935Z,9.13
2023-01-05T19:21:22.749Z,9.13
2023-01-05T19:23:55.526Z,9.24
2023-01-05T19:26:24.333Z,9.38
2023-01-05T19:29:17.905Z,9.07
2023-01-05T19:31:47.027Z,8.97
2023-01-05T19:34:18.511Z,9.09
2023-01-05T19:36:47.651Z,9.33
2023-01-05T19:39:17.765Z,9.44
2023-01-05T19:41:47.104Z,9.40
2023-01-05T19:44:17.301Z,9.20
2023-01-05T19:46:49.234Z,9.30
2023-01-05T19:49:27.384Z,9.09
2023-01-05T19:51:55.493Z,9.28
2023-01-05T19:54:25.358Z,9.09
2023-01-05T19:56:54.703Z,9.04
2023-01-05T19:59:31.925Z,9.27
2023-01-05T20:02:01.605Z,9.33
2023-01-05T20:04:30.022Z,9.42
2023-01-05T20:06:58.299Z,9.34
2023-01-05T20:09:26.470Z,9.20
2023-01-05T20:11:59.557Z,9.10
2023-01-05T20:14:34.373Z,9.20
2023-01-05T20:17:10.327Z,9.18
2023-01-05T20:19:39.234Z,9.28
2023-01-05T20:22:08.659Z,9.24
2023-01-05T20:24:37.350Z,9.31
2023-01-05T20:27:10.053Z,9.18
2023-01-05T20:29:37.929Z,9.16
2023-01-05T20:32:10.935Z,9.22
2023-01-05T20:34:40.091Z,9.03
2023-01-05T20:37:09.973Z,9.20
2023-01-05T20:39:39.094Z,9.28
2023-01-05T20:42:06.779Z,9.32
2023-01-05T20:44:36.787Z,9.37
2023-01-05T20:47:06.823Z,9.47
2023-01-05T20:49:36.265Z,9.42
2023-01-05T20:52:05.167Z,9.21
2023-01-05T20:54:33.198Z,9.33
2023-01-05T20:57:00.850Z,9.18
2023-01-05T20:59:31.237Z,9.20
2023-01-05T21:02:00.151Z,9.16
2023-01-05T21:04:30.115Z,9.16
2023-01-05T21:07:01.128Z,9.14
2023-01-05T21:09:30.248Z,8.77
2023-01-05T21:12:00.096Z,9.03
2023-01-05T21:14:27.722Z,9.10
2023-01-05T21:16:55.734Z,8.87
2023-01-05T21:19:24.286Z,8.86
2023-01-05T21:21:54.634Z,9.06
2023-01-05T21:24:22.917Z,8.99
2023-01-05T21:26:50.983Z,9.17
2023-01-05T21:29:22.605Z,9.12
2023-01-05T21:31:51.506Z,9.20
2023-01-05T21:34:19.295Z,9.15
2023-01-05T21:36:49.037Z,9.09
2023-01-05T21:39:21.611Z,9.09
2023-01-05T21:42:09.899Z,9.14
2023-01-05T21:44:38.028Z,9.24
2023-01-05T21:47:06.843Z,8.85
2023-01-05T21:49:35.755Z,8.69
2023-01-05T21:52:23.202Z,8.87
2023-01-05T21:55:09.584Z,9.09
2023-01-05T21:57:37.230Z,9.14
2023-01-05T22:00:06.096Z,9.15
2023-01-05T22:02:36.794Z,9.16
2023-01-05T22:05:04.807Z,9.22
2023-01-05T22:07:32.392Z,9.34
2023-01-05T22:10:00.049Z,9.42
2023-01-05T22:12:27.848Z,9.29
2023-01-05T22:14:55.656Z,9.23
2023-01-05T22:17:23.290Z,9.18
2023-01-05T22:19:53.426Z,9.30
2023-01-05T22:22:22.207Z,9.38
2023-01-05T22:24:49.935Z,9.33
2023-01-05T22:27:17.557Z,9.42
2023-01-05T22:29:45.016Z,9.32
2023-01-05T22:32:12.548Z,9.29
2023-01-05T22:34:43.903Z,9.15
2023-01-05T22:37:11.685Z,9.02
2023-01-05T22:39:39.258Z,9.13
2023-01-05T22:42:07.055Z,9.01
2023-01-05T22:44:34.771Z,9.08
2023-01-05T22:47:02.384Z,9.03
2023-01-05T22:49:30.744Z,8.81
2023-01-05T22:51:58.215Z,8.99
2023-01-05T22:54:25.994Z,9.04
2023-01-05T22:56:53.571Z,8.99
2023-01-05T22:59:21.796Z,8.89
2023-01-05T23:01:49.937Z,9.00
2023-01-05T23:04:17.597Z,8.90
2023-01-05T23:06:45.097Z,8.97
2023-01-05T23:09:15.272Z,9.03
2023-01-05T23:11:46.368Z,9.08
2023-01-05T23:14:15.153Z,9.09
2023-01-05T23:16:42.795Z,9.18
2023-01-05T23:19:12.158Z,9.10
2023-01-05T23:21:39.700Z,8.96
2023-01-05T23:24:07.700Z,8.98
2023-01-05T23:26:35.252Z,8.98
2023-01-05T23:29:11.894Z,8.99
2023-01-05T23:31:39.383Z,9.18
2023-01-05T23:34:06.910Z,9.04
2023-01-05T23:36:34.394Z,9.23
2023-01-05T23:39:02.041Z,9.22
2023-01-05T23:41:29.672Z,9.03
2023-01-05T23:43:57.250Z,9.10
2023-01-05T23:46:24.952Z,8.95
2023-01-05T23:48:53.004Z,8.90
2023-01-05T23:51:21.069Z,8.88
2023-01-05T23:53:51.215Z,8.84
2023-01-05T23:56:30.752Z,8.98
2023-01-05T23:59:05.611Z,9.06
